Adamsdale, Pennsylvania
Current Conditions -  °F | °C
As of 12:54 PM on Thursday 30 Oct 2014 (Local Time) from KRDG Reporting Station
Few Clouds Few Clouds  
Wind Chill: 13°   Ceiling: Unl
Heat Index: 13°   Visibility: 10mi
Dew Point:   Wind: 5mph
Humidity: 49%   Direction: NA
Pressure: 30.02"   Gusts: NA
Location:  40.6412°N, 76.1672°W
Report Text: KRDG 301654Z VRB04KT 10SM FEW043 13/03 A3002 RMK AO2 SLP170 T01330028
Loading
Personal Weather Stations






























Interactive Weather Map
Tropical Storm Tracking
New forecast layout! Learn more

10-Day Weather Forecast

Advertisements
Track Severe Weather on mobile